createdAt,value
2022-09-01T00:01:49.057Z,99.90
2022-09-01T00:04:19.558Z,99.90
2022-09-01T00:06:48.476Z,99.90
2022-09-01T00:09:19.471Z,99.90
2022-09-01T00:11:50.757Z,99.90
2022-09-01T00:14:30.691Z,99.90
2022-09-01T00:16:58.952Z,99.90
2022-09-01T00:19:26.142Z,99.90
2022-09-01T00:21:54.225Z,99.90
2022-09-01T00:24:25.335Z,99.90
2022-09-01T00:26:52.691Z,99.90
2022-09-01T00:29:22.585Z,99.90
2022-09-01T00:31:49.411Z,99.90
2022-09-01T00:34:17.402Z,99.90
2022-09-01T00:36:44.651Z,99.90
2022-09-01T00:39:12.699Z,99.90
2022-09-01T00:41:42.170Z,99.90
2022-09-01T00:44:11.616Z,99.90
2022-09-01T00:46:47.601Z,99.90
2022-09-01T00:49:20.982Z,99.90
2022-09-01T00:51:51.560Z,99.90
2022-09-01T00:54:22.418Z,99.90
2022-09-01T00:56:53.023Z,99.90
2022-09-01T00:59:26.117Z,99.90
2022-09-01T01:01:52.963Z,99.90
2022-09-01T01:04:20.337Z,99.90
2022-09-01T01:06:57.817Z,99.90
2022-09-01T01:09:26.602Z,99.90
2022-09-01T01:11:58.733Z,99.90
2022-09-01T01:14:28.327Z,99.90
2022-09-01T01:16:55.191Z,99.90
2022-09-01T01:19:45.299Z,99.90
2022-09-01T01:22:36.497Z,99.90
2022-09-01T01:25:04.513Z,99.90
2022-09-01T01:27:32.939Z,99.90
2022-09-01T01:30:10.405Z,99.90
2022-09-01T01:32:37.391Z,99.90
2022-09-01T01:35:06.037Z,99.90
2022-09-01T01:37:34.767Z,99.90
2022-09-01T01:40:01.995Z,99.90
2022-09-01T01:42:29.485Z,99.90
2022-09-01T01:44:56.678Z,99.90
2022-09-01T01:47:24.154Z,99.90
2022-09-01T01:49:52.095Z,99.90
2022-09-01T01:52:20.016Z,99.90
2022-09-01T01:54:53.480Z,99.90
2022-09-01T01:57:20.196Z,99.90
2022-09-01T01:59:47.635Z,99.90
2022-09-01T02:02:14.402Z,99.90
2022-09-01T02:04:42.789Z,99.90
2022-09-01T02:07:11.739Z,99.90
2022-09-01T02:09:38.990Z,99.90
2022-09-01T02:12:07.251Z,99.90
2022-09-01T02:14:34.021Z,99.90
2022-09-01T02:17:02.914Z,99.90
2022-09-01T02:19:29.770Z,99.90
2022-09-01T02:21:59.320Z,99.90
2022-09-01T02:24:30.260Z,99.90
2022-09-01T02:26:59.911Z,99.90
2022-09-01T02:29:28.183Z,99.90
2022-09-01T02:31:56.244Z,99.90
2022-09-01T02:34:26.972Z,99.90
2022-09-01T02:36:56.238Z,99.90
2022-09-01T02:39:25.838Z,99.90
2022-09-01T02:41:53.953Z,99.90
2022-09-01T02:44:21.374Z,99.90
2022-09-01T02:46:49.525Z,99.90
2022-09-01T02:49:19.153Z,99.90
2022-09-01T02:51:53.229Z,99.90
2022-09-01T02:54:23.906Z,99.90
2022-09-01T02:56:53.981Z,99.90
2022-09-01T02:59:23.289Z,99.90
2022-09-01T03:01:53.198Z,99.90
2022-09-01T03:04:21.659Z,99.90
2022-09-01T03:06:50.174Z,99.90
2022-09-01T03:09:40.899Z,99.90
2022-09-01T03:12:08.062Z,99.90
2022-09-01T03:14:34.850Z,99.90
2022-09-01T03:17:01.626Z,99.90
2022-09-01T03:19:31.565Z,99.90
2022-09-01T03:21:59.453Z,99.90
2022-09-01T03:24:26.122Z,99.90
2022-09-01T03:26:52.816Z,99.90
2022-09-01T03:29:20.069Z,99.90
2022-09-01T03:31:47.183Z,99.90
2022-09-01T03:34:15.831Z,99.90
2022-09-01T03:36:49.390Z,99.90
2022-09-01T03:39:17.837Z,99.90
2022-09-01T03:41:45.076Z,99.90
2022-09-01T03:44:15.540Z,99.90
2022-09-01T03:46:43.264Z,99.90
2022-09-01T03:49:12.646Z,99.90
2022-09-01T03:51:39.785Z,99.90
2022-09-01T03:54:06.724Z,99.90
2022-09-01T03:56:34.259Z,99.90
2022-09-01T03:59:01.002Z,99.90
2022-09-01T04:01:33.004Z,99.90
2022-09-01T04:04:00.558Z,99.90
2022-09-01T04:06:29.731Z,99.90
2022-09-01T04:09:01.962Z,99.90
2022-09-01T04:11:28.987Z,99.90
2022-09-01T04:13:56.560Z,99.90
2022-09-01T04:16:43.292Z,99.90
2022-09-01T04:19:19.269Z,99.90
2022-09-01T04:21:46.936Z,99.90
2022-09-01T04:24:14.172Z,99.90
2022-09-01T04:26:41.807Z,99.90
2022-09-01T04:29:12.071Z,99.90
2022-09-01T04:31:40.172Z,99.90
2022-09-01T04:34:13.255Z,99.90
2022-09-01T04:36:41.427Z,99.90
2022-09-01T04:39:09.674Z,99.90
2022-09-01T04:41:40.639Z,99.90
2022-09-01T04:44:08.627Z,99.90
2022-09-01T04:46:38.377Z,99.90
2022-09-01T04:49:09.172Z,99.90
2022-09-01T04:51:40.952Z,99.90
2022-09-01T04:54:10.683Z,99.90
2022-09-01T04:56:38.065Z,99.90
2022-09-01T04:59:07.279Z,99.90
2022-09-01T05:01:42.478Z,99.90
2022-09-01T05:04:11.973Z,99.90
2022-09-01T05:06:41.666Z,99.90
2022-09-01T05:09:10.440Z,99.90
2022-09-01T05:11:38.196Z,99.90
2022-09-01T05:14:06.270Z,99.90
2022-09-01T05:16:35.031Z,99.90
2022-09-01T05:19:01.993Z,99.90
2022-09-01T05:21:29.330Z,99.90
2022-09-01T05:24:00.014Z,99.90
2022-09-01T05:26:29.285Z,99.90
2022-09-01T05:28:58.903Z,99.90
2022-09-01T05:31:27.718Z,99.90
2022-09-01T05:33:57.435Z,99.90
2022-09-01T05:36:26.078Z,99.90
2022-09-01T05:38:53.174Z,99.90
2022-09-01T05:41:23.162Z,99.90
2022-09-01T05:43:59.380Z,99.90
2022-09-01T05:46:27.435Z,99.90
2022-09-01T05:48:56.699Z,99.90
2022-09-01T05:51:43.357Z,99.90
2022-09-01T05:54:12.575Z,99.90
2022-09-01T05:56:43.261Z,99.90
2022-09-01T05:59:27.452Z,99.90
2022-09-01T06:01:54.960Z,99.90
2022-09-01T06:04:24.695Z,99.90
2022-09-01T06:07:06.960Z,99.90
2022-09-01T06:09:37.900Z,99.90
2022-09-01T06:12:05.915Z,99.90
2022-09-01T06:14:32.623Z,99.90
2022-09-01T06:17:00.228Z,99.90
2022-09-01T06:19:28.054Z,99.90
2022-09-01T06:21:56.110Z,99.90
2022-09-01T06:24:22.921Z,99.90
2022-09-01T06:26:49.691Z,99.90
2022-09-01T06:29:16.410Z,99.90
2022-09-01T06:31:50.922Z,99.90
2022-09-01T06:34:18.920Z,99.90
2022-09-01T06:36:50.995Z,99.90
2022-09-01T06:39:19.275Z,99.90
2022-09-01T06:41:48.922Z,99.90
2022-09-01T06:44:22.612Z,99.90
2022-09-01T06:46:50.082Z,99.90
2022-09-01T06:49:16.903Z,99.90
2022-09-01T06:51:49.043Z,99.90
2022-09-01T06:54:16.607Z,99.90
2022-09-01T06:56:45.044Z,99.90
2022-09-01T06:59:20.040Z,99.90
2022-09-01T07:01:48.373Z,99.90
2022-09-01T07:04:20.788Z,99.90
2022-09-01T07:09:50.127Z,99.90
2022-09-01T07:12:26.614Z,99.90
2022-09-01T07:17:42.273Z,99.90
2022-09-01T07:20:26.750Z,99.90
2022-09-01T07:23:06.383Z,99.90
2022-09-01T07:26:01.415Z,99.90
2022-09-01T07:28:36.090Z,99.90
2022-09-01T07:33:54.469Z,99.90
2022-09-01T07:36:26.005Z,99.90
2022-09-01T07:44:32.720Z,99.90
2022-09-01T07:47:51.694Z,99.90
2022-09-01T07:50:12.390Z,99.90
2022-09-01T07:52:42.630Z,99.90
2022-09-01T07:55:11.169Z,99.90
2022-09-01T07:57:42.103Z,99.90
2022-09-01T08:00:10.698Z,99.90
2022-09-01T08:02:39.531Z,99.90
2022-09-01T08:05:09.419Z,99.90
2022-09-01T08:07:51.753Z,99.90
2022-09-01T08:10:20.183Z,99.90
2022-09-01T08:12:58.464Z,99.90
2022-09-01T08:16:06.986Z,99.90
2022-09-01T08:18:14.851Z,99.90
2022-09-01T08:20:49.531Z,99.90
2022-09-01T08:23:20.952Z,99.90
2022-09-01T08:25:47.844Z,99.90
2022-09-01T08:28:17.112Z,99.90
2022-09-01T08:30:53.007Z,99.90
2022-09-01T08:33:23.019Z,99.90
2022-09-01T08:35:49.869Z,99.90
2022-09-01T08:38:16.791Z,99.90
2022-09-01T08:40:50.524Z,99.90
2022-09-01T08:43:31.875Z,99.90
2022-09-01T08:46:06.880Z,99.90
2022-09-01T08:51:37.088Z,99.90
2022-09-01T08:54:15.779Z,99.90
2022-09-01T08:56:45.337Z,99.90
2022-09-01T08:59:15.028Z,99.90
2022-09-01T09:01:48.865Z,99.90
2022-09-01T09:04:34.021Z,99.90
2022-09-01T09:07:08.085Z,99.90
2022-09-01T09:09:41.317Z,99.90
2022-09-01T09:12:20.434Z,99.90
2022-09-01T09:15:01.661Z,99.90
2022-09-01T09:17:34.279Z,99.90
2022-09-01T09:20:01.848Z,99.90
2022-09-01T09:22:29.137Z,99.90
2022-09-01T09:25:03.419Z,99.90
2022-09-01T09:27:33.615Z,99.90
2022-09-01T09:30:08.299Z,99.90
2022-09-01T09:33:25.103Z,99.90
2022-09-01T09:35:38.294Z,99.90
2022-09-01T09:38:23.936Z,99.90
2022-09-01T09:41:16.618Z,99.90
2022-09-01T09:43:48.692Z,99.90
2022-09-01T09:46:28.776Z,99.90
2022-09-01T09:49:17.083Z,99.90
2022-09-01T09:51:48.784Z,99.90
2022-09-01T09:54:24.168Z,99.90
2022-09-01T09:57:13.118Z,99.90
2022-09-01T10:00:01.389Z,99.90
2022-09-01T10:02:34.761Z,99.90
2022-09-01T10:05:23.107Z,99.90
2022-09-01T10:07:50.307Z,99.90
2022-09-01T10:10:28.549Z,99.90
2022-09-01T10:12:56.837Z,99.90
2022-09-01T10:15:26.480Z,99.90
2022-09-01T10:18:19.698Z,99.90
2022-09-01T10:20:53.235Z,99.90
2022-09-01T10:23:20.067Z,99.90
2022-09-01T10:25:52.501Z,99.90
2022-09-01T10:28:23.916Z,99.90
2022-09-01T10:30:53.578Z,99.90
2022-09-01T10:33:22.574Z,99.90
2022-09-01T10:35:52.124Z,99.90
2022-09-01T10:38:22.637Z,99.90
2022-09-01T10:41:06.426Z,99.90
2022-09-01T10:43:38.819Z,99.90
2022-09-01T10:46:49.363Z,99.90
2022-09-01T10:49:50.696Z,99.90
2022-09-01T10:52:53.765Z,99.90
2022-09-01T10:55:25.308Z,99.90
2022-09-01T10:59:29.626Z,99.90
2022-09-01T11:01:34.967Z,99.90
2022-09-01T11:03:56.361Z,99.80
2022-09-01T11:07:16.842Z,99.40
2022-09-01T11:09:47.752Z,99.00
2022-09-01T11:12:30.595Z,98.20
2022-09-01T11:14:59.330Z,98.60
2022-09-01T11:17:28.404Z,97.90
2022-09-01T11:20:06.277Z,98.20
2022-09-01T11:22:38.247Z,97.50
2022-09-01T11:25:40.409Z,97.80
2022-09-01T11:28:23.773Z,98.50
2022-09-01T11:30:54.781Z,99.20
2022-09-01T11:33:37.705Z,99.00
2022-09-01T11:36:12.300Z,98.90
2022-09-01T11:38:49.841Z,97.40
2022-09-01T11:41:25.206Z,97.40
2022-09-01T11:44:00.125Z,97.10
2022-09-01T11:46:31.892Z,95.90
2022-09-01T11:49:03.148Z,96.00
2022-09-01T11:51:41.044Z,95.80
2022-09-01T11:54:08.843Z,96.40
2022-09-01T11:56:35.652Z,96.60
2022-09-01T11:59:02.437Z,96.90
2022-09-01T12:01:33.123Z,97.00
2022-09-01T12:04:21.596Z,96.50
2022-09-01T12:06:57.359Z,96.80
2022-09-01T12:09:33.754Z,96.90
2022-09-01T12:12:00.924Z,96.70
2022-09-01T12:14:38.922Z,96.00
2022-09-01T12:17:22.401Z,95.40
2022-09-01T12:19:49.392Z,94.90
2022-09-01T12:22:19.527Z,94.70
2022-09-01T12:24:48.879Z,94.90
2022-09-01T12:27:16.170Z,95.30
2022-09-01T12:29:43.561Z,95.20
2022-09-01T12:32:11.282Z,95.40
2022-09-01T12:34:40.919Z,95.80
2022-09-01T12:37:11.427Z,95.00
2022-09-01T12:39:40.094Z,94.90
2022-09-01T12:42:11.573Z,96.40
2022-09-01T12:44:50.690Z,97.60
2022-09-01T12:47:50.231Z,98.20
2022-09-01T12:50:45.087Z,98.10
2022-09-01T12:53:27.923Z,98.70
2022-09-01T12:56:23.751Z,98.30
2022-09-01T12:59:03.021Z,98.00
2022-09-01T13:01:32.699Z,98.20
2022-09-01T13:04:23.049Z,97.40
2022-09-01T13:06:50.658Z,97.40
2022-09-01T13:09:17.992Z,97.30
2022-09-01T13:14:34.349Z,96.60
2022-09-01T13:17:01.580Z,95.60
2022-09-01T13:19:30.337Z,95.20
2022-09-01T13:21:57.580Z,92.80
2022-09-01T13:24:28.100Z,93.20
2022-09-01T13:29:45.899Z,93.40
2022-09-01T13:32:19.304Z,92.70
2022-09-01T13:34:47.043Z,93.30
2022-09-01T13:37:15.816Z,93.90
2022-09-01T13:39:42.667Z,95.10
2022-09-01T13:42:09.756Z,94.50
2022-09-01T13:44:36.495Z,94.50
2022-09-01T13:52:43.598Z,94.00
2022-09-01T13:55:12.852Z,93.70
2022-09-01T13:57:39.901Z,92.90
2022-09-01T14:00:10.435Z,92.80
2022-09-01T14:02:39.400Z,92.50
2022-09-01T14:05:09.154Z,93.50
2022-09-01T14:07:36.422Z,94.30
2022-09-01T14:10:03.506Z,94.80
2022-09-01T14:12:31.156Z,94.10
2022-09-01T14:15:16.489Z,92.90
2022-09-01T14:17:45.906Z,93.30
2022-09-01T14:20:18.344Z,93.00
2022-09-01T14:22:45.666Z,91.10
2022-09-01T14:25:13.133Z,91.60
2022-09-01T14:27:41.749Z,92.70
2022-09-01T14:30:14.854Z,93.10
2022-09-01T14:32:41.688Z,93.00
2022-09-01T14:35:09.943Z,92.40
2022-09-01T14:37:37.739Z,92.70
2022-09-01T14:40:08.479Z,90.60
2022-09-01T14:42:36.448Z,83.20
2022-09-01T14:45:04.200Z,75.80
2022-09-01T14:47:31.179Z,74.20
2022-09-01T14:50:01.318Z,76.40
2022-09-01T14:52:29.962Z,78.20
2022-09-01T14:54:57.014Z,78.80
2022-09-01T14:57:37.080Z,78.60
2022-09-01T15:00:09.492Z,79.80
2022-09-01T15:02:36.272Z,83.10
2022-09-01T15:05:03.417Z,84.60
2022-09-01T15:07:30.868Z,85.60
2022-09-01T15:09:58.165Z,85.40
2022-09-01T15:12:25.361Z,86.80
2022-09-01T15:14:52.153Z,86.80
2022-09-01T15:17:19.034Z,85.90
2022-09-01T15:19:46.110Z,87.60
2022-09-01T15:22:13.730Z,83.90
2022-09-01T15:24:42.767Z,79.70
2022-09-01T15:27:10.736Z,79.20
2022-09-01T15:29:44.182Z,81.80
2022-09-01T15:32:15.252Z,85.80
2022-09-01T15:34:54.504Z,88.70
2022-09-01T15:37:21.257Z,90.30
2022-09-01T15:39:48.696Z,91.30
2022-09-01T15:44:43.569Z,91.90
2022-09-01T15:47:10.357Z,91.90
2022-09-01T15:49:37.148Z,91.90
2022-09-01T15:52:04.022Z,91.90
2022-09-01T15:54:30.962Z,91.90
2022-09-01T15:56:58.489Z,90.90
2022-09-01T15:59:25.233Z,90.90
2022-09-01T16:01:54.431Z,90.80
2022-09-01T16:04:26.894Z,91.70
2022-09-01T16:06:55.796Z,90.90
2022-09-01T16:09:22.626Z,90.80
2022-09-01T16:11:49.368Z,91.40
2022-09-01T16:14:16.834Z,91.30
2022-09-01T16:16:53.135Z,91.30
2022-09-01T16:19:29.581Z,91.50
2022-09-01T16:22:05.193Z,91.40
2022-09-01T16:24:38.904Z,91.30
2022-09-01T16:27:08.129Z,91.60
2022-09-01T16:29:45.353Z,91.60
2022-09-01T16:32:13.375Z,91.90
2022-09-01T16:34:46.073Z,91.90
2022-09-01T16:37:28.581Z,92.00
2022-09-01T16:40:09.835Z,92.10
2022-09-01T16:42:46.222Z,92.70
2022-09-01T16:45:22.328Z,92.10
2022-09-01T16:47:59.526Z,92.10
2022-09-01T16:50:38.597Z,96.90
2022-09-01T16:53:19.250Z,93.10
2022-09-01T16:55:58.309Z,93.00
2022-09-01T16:58:38.463Z,93.20
2022-09-01T17:01:17.601Z,93.10
2022-09-01T17:03:55.134Z,93.60
2022-09-01T17:06:31.092Z,93.90
2022-09-01T17:09:08.526Z,93.90
2022-09-01T17:11:48.965Z,94.20
2022-09-01T17:14:26.871Z,94.30
2022-09-01T17:17:03.708Z,94.40
2022-09-01T17:19:31.645Z,96.20
2022-09-01T17:22:04.704Z,94.80
2022-09-01T17:24:36.364Z,96.20
2022-09-01T17:27:11.935Z,97.70
2022-09-01T17:29:44.197Z,95.80
2022-09-01T17:32:31.094Z,95.40
2022-09-01T17:35:04.524Z,95.20
2022-09-01T17:37:42.570Z,95.50
2022-09-01T17:40:15.853Z,95.60
2022-09-01T17:42:50.510Z,96.40
2022-09-01T17:45:28.316Z,97.60
2022-09-01T17:48:05.849Z,97.10
2022-09-01T17:53:28.034Z,97.20
2022-09-01T17:56:00.375Z,97.40
2022-09-01T17:58:45.705Z,97.70
2022-09-01T18:01:23.602Z,98.30
2022-09-01T18:04:11.618Z,98.20
2022-09-01T18:06:48.120Z,99.80
2022-09-01T18:09:18.803Z,99.40
2022-09-01T18:11:50.221Z,99.60
2022-09-01T18:14:21.741Z,99.90
2022-09-01T18:16:58.212Z,99.80
2022-09-01T18:19:32.324Z,99.90
2022-09-01T18:22:02.985Z,99.60
2022-09-01T18:24:38.026Z,99.90
2022-09-01T18:27:07.004Z,99.90
2022-09-01T18:29:33.838Z,99.90
2022-09-01T18:32:17.803Z,99.90
2022-09-01T18:35:10.904Z,99.90
2022-09-01T18:37:48.738Z,99.90
2022-09-01T18:40:21.640Z,99.90
2022-09-01T18:42:57.015Z,99.90
2022-09-01T18:45:34.602Z,99.90
2022-09-01T18:48:13.066Z,99.90
2022-09-01T18:50:47.039Z,99.90
2022-09-01T18:53:25.649Z,99.90
2022-09-01T18:56:03.052Z,99.90
2022-09-01T18:58:42.442Z,99.90
2022-09-01T19:01:14.252Z,99.90
2022-09-01T19:03:47.990Z,99.90
2022-09-01T19:06:28.592Z,99.90
2022-09-01T19:09:08.309Z,99.90
2022-09-01T19:11:47.662Z,99.90
2022-09-01T19:17:13.408Z,99.90
2022-09-01T19:19:48.578Z,99.90
2022-09-01T19:22:20.790Z,99.90
2022-09-01T19:24:53.212Z,99.90
2022-09-01T19:27:24.552Z,99.90
2022-09-01T19:29:55.851Z,99.90
2022-09-01T19:32:27.044Z,99.90
2022-09-01T19:34:57.754Z,99.90
2022-09-01T19:37:27.444Z,99.90
2022-09-01T19:39:54.712Z,99.90
2022-09-01T19:42:28.192Z,99.90
2022-09-01T19:45:06.674Z,99.90
2022-09-01T19:47:41.960Z,99.90
2022-09-01T19:50:17.340Z,99.90
2022-09-01T19:52:52.326Z,99.90
2022-09-01T19:55:27.999Z,99.90
2022-09-01T19:58:01.492Z,99.90
2022-09-01T20:00:35.131Z,99.90
2022-09-01T20:03:07.862Z,99.90
2022-09-01T20:05:40.896Z,99.90
2022-09-01T20:08:14.812Z,99.90
2022-09-01T20:10:56.542Z,99.90
2022-09-01T20:13:51.095Z,99.90
2022-09-01T20:16:26.095Z,99.90
2022-09-01T20:18:59.137Z,99.90
2022-09-01T20:21:26.160Z,99.90
2022-09-01T20:23:57.822Z,99.90
2022-09-01T20:26:32.014Z,99.90
2022-09-01T20:29:05.637Z,99.90
2022-09-01T20:31:36.475Z,99.90
2022-09-01T20:34:10.264Z,99.90
2022-09-01T20:36:43.191Z,99.90
2022-09-01T20:39:35.540Z,99.90
2022-09-01T20:42:07.857Z,99.90
2022-09-01T20:44:42.024Z,99.90
2022-09-01T20:47:09.292Z,99.90
2022-09-01T20:49:38.577Z,99.90
2022-09-01T20:52:12.318Z,99.90
2022-09-01T20:54:49.823Z,99.90
2022-09-01T20:57:30.693Z,99.90
2022-09-01T21:00:01.848Z,99.90
2022-09-01T21:02:39.199Z,99.90
2022-09-01T21:05:22.137Z,99.90
2022-09-01T21:07:59.897Z,99.90
2022-09-01T21:10:34.333Z,99.90
2022-09-01T21:13:11.928Z,99.90
2022-09-01T21:15:43.520Z,99.90
2022-09-01T21:18:27.097Z,99.90
2022-09-01T21:20:59.997Z,99.90
2022-09-01T21:23:28.875Z,99.90
2022-09-01T21:25:57.377Z,99.90
2022-09-01T21:28:27.204Z,99.90
2022-09-01T21:30:57.058Z,99.90
2022-09-01T21:33:27.007Z,99.90
2022-09-01T21:35:54.279Z,99.90
2022-09-01T21:38:21.153Z,99.90
2022-09-01T21:40:49.151Z,99.90
2022-09-01T21:43:21.004Z,99.90
2022-09-01T21:45:48.486Z,99.90
2022-09-01T21:48:15.877Z,99.90
2022-09-01T21:50:42.717Z,99.90
2022-09-01T21:53:10.438Z,99.90
2022-09-01T21:55:37.775Z,99.90
2022-09-01T21:58:04.558Z,99.90
2022-09-01T22:00:34.513Z,99.90
2022-09-01T22:03:01.905Z,99.90
2022-09-01T22:05:30.445Z,99.90
2022-09-01T22:07:57.748Z,99.90
2022-09-01T22:10:27.346Z,99.90
2022-09-01T22:12:55.401Z,99.90
2022-09-01T22:15:24.284Z,99.90
2022-09-01T22:17:52.878Z,99.90
2022-09-01T22:20:22.490Z,99.90
2022-09-01T22:22:50.050Z,99.90
2022-09-01T22:25:19.439Z,99.90
2022-09-01T22:27:46.426Z,99.90
2022-09-01T22:30:13.997Z,99.90
2022-09-01T22:32:47.058Z,99.90
2022-09-01T22:35:15.800Z,99.90
2022-09-01T22:37:42.983Z,99.90
2022-09-01T22:40:12.764Z,99.90
2022-09-01T22:42:39.645Z,99.90
2022-09-01T22:45:07.980Z,99.90
2022-09-01T22:47:36.968Z,99.90
2022-09-01T22:50:07.352Z,99.90
2022-09-01T22:52:34.913Z,99.90
2022-09-01T22:55:03.403Z,99.90
2022-09-01T22:57:30.271Z,99.90
2022-09-01T22:59:57.474Z,99.90
2022-09-01T23:02:24.267Z,99.90
2022-09-01T23:04:51.535Z,99.90
2022-09-01T23:07:18.514Z,99.90
2022-09-01T23:09:45.947Z,99.90
2022-09-01T23:12:13.667Z,99.90
2022-09-01T23:14:41.860Z,99.90
2022-09-01T23:17:08.716Z,99.90
2022-09-01T23:19:35.775Z,99.90
2022-09-01T23:22:02.979Z,99.90
2022-09-01T23:24:29.674Z,99.90
2022-09-01T23:26:57.516Z,99.90
2022-09-01T23:29:25.018Z,99.90
2022-09-01T23:31:51.918Z,99.90
2022-09-01T23:34:19.010Z,99.90
2022-09-01T23:36:45.806Z,99.90
2022-09-01T23:39:13.143Z,99.90
2022-09-01T23:41:39.951Z,99.90
2022-09-01T23:44:09.277Z,99.90
2022-09-01T23:46:38.527Z,99.90
2022-09-01T23:49:06.111Z,99.90
2022-09-01T23:51:33.985Z,99.90
2022-09-01T23:54:01.020Z,99.90
2022-09-01T23:56:29.034Z,99.90
2022-09-01T23:58:56.115Z,99.90
